sensor_id;sensor_type;location;lat;lon;timestamp;pressure;altitude;pressure_sealevel;temperature;humidity
29239;BME280;16267;48.194;11.546;2023-02-28T00:00:36;96439.31;;;-1.07;64.00
29239;BME280;16267;48.194;11.546;2023-02-28T00:03:03;96445.19;;;-1.10;63.78
29239;BME280;16267;48.194;11.546;2023-02-28T00:05:29;96434.97;;;-1.12;63.99
29239;BME280;16267;48.194;11.546;2023-02-28T00:07:55;96433.13;;;-1.20;63.36
29239;BME280;16267;48.194;11.546;2023-02-28T00:10:25;96432.81;;;-1.18;64.09
29239;BME280;16267;48.194;11.546;2023-02-28T00:12:54;96432.50;;;-1.17;64.49
29239;BME280;16267;48.194;11.546;2023-02-28T00:15:23;96439.63;;;-1.17;63.89
29239;BME280;16267;48.194;11.546;2023-02-28T00:17:49;96435.59;;;-1.15;63.85
29239;BME280;16267;48.194;11.546;2023-02-28T00:20:15;96430.31;;;-1.15;64.23
29239;BME280;16267;48.194;11.546;2023-02-28T00:22:45;96431.72;;;-1.17;63.84
29239;BME280;16267;48.194;11.546;2023-02-28T00:25:15;96430.66;;;-1.16;64.18
29239;BME280;16267;48.194;11.546;2023-02-28T00:27:41;96432.19;;;-1.15;64.21
29239;BME280;16267;48.194;11.546;2023-02-28T00:30:11;96428.31;;;-1.18;63.76
29239;BME280;16267;48.194;11.546;2023-02-28T00:32:38;96424.16;;;-1.19;64.43
29239;BME280;16267;48.194;11.546;2023-02-28T00:35:05;96423.97;;;-1.22;63.77
29239;BME280;16267;48.194;11.546;2023-02-28T00:37:31;96419.19;;;-1.20;64.22
29239;BME280;16267;48.194;11.546;2023-02-28T00:39:57;96430.03;;;-1.22;63.91
29239;BME280;16267;48.194;11.546;2023-02-28T00:42:23;96422.91;;;-1.21;64.38
29239;BME280;16267;48.194;11.546;2023-02-28T00:44:49;96420.28;;;-1.21;64.20
29239;BME280;16267;48.194;11.546;2023-02-28T00:47:16;96421.19;;;-1.26;64.08
29239;BME280;16267;48.194;11.546;2023-02-28T00:49:42;96425.56;;;-1.30;63.91
29239;BME280;16267;48.194;11.546;2023-02-28T00:52:08;96421.84;;;-1.29;64.88
29239;BME280;16267;48.194;11.546;2023-02-28T00:54:34;96418.44;;;-1.29;64.47
29239;BME280;16267;48.194;11.546;2023-02-28T00:57:00;96426.31;;;-1.29;64.94
29239;BME280;16267;48.194;11.546;2023-02-28T00:59:29;96425.84;;;-1.31;64.43
29239;BME280;16267;48.194;11.546;2023-02-28T01:01:57;96426.97;;;-1.32;64.55
29239;BME280;16267;48.194;11.546;2023-02-28T01:04:23;96420.91;;;-1.33;65.25
29239;BME280;16267;48.194;11.546;2023-02-28T01:06:49;96421.69;;;-1.32;64.92
29239;BME280;16267;48.194;11.546;2023-02-28T01:09:17;96428.50;;;-1.31;65.05
29239;BME280;16267;48.194;11.546;2023-02-28T01:11:43;96420.91;;;-1.33;65.09
29239;BME280;16267;48.194;11.546;2023-02-28T01:14:13;96420.13;;;-1.33;65.25
29239;BME280;16267;48.194;11.546;2023-02-28T01:16:40;96415.94;;;-1.35;65.36
29239;BME280;16267;48.194;11.546;2023-02-28T01:19:06;96415.94;;;-1.35;65.38
29239;BME280;16267;48.194;11.546;2023-02-28T01:21:32;96411.78;;;-1.36;65.21
29239;BME280;16267;48.194;11.546;2023-02-28T01:23:58;96409.91;;;-1.35;65.23
29239;BME280;16267;48.194;11.546;2023-02-28T01:26:24;96405.28;;;-1.38;65.11
29239;BME280;16267;48.194;11.546;2023-02-28T01:28:51;96409.59;;;-1.42;65.17
29239;BME280;16267;48.194;11.546;2023-02-28T01:31:19;96409.59;;;-1.42;65.51
29239;BME280;16267;48.194;11.546;2023-02-28T01:33:45;96400.63;;;-1.41;65.54
29239;BME280;16267;48.194;11.546;2023-02-28T01:36:17;96400.03;;;-1.47;64.85
29239;BME280;16267;48.194;11.546;2023-02-28T01:38:44;96397.06;;;-1.45;65.31
29239;BME280;16267;48.194;11.546;2023-02-28T01:41:20;96401.56;;;-1.46;65.57
29239;BME280;16267;48.194;11.546;2023-02-28T01:46:13;96395.34;;;-1.50;65.59
29239;BME280;16267;48.194;11.546;2023-02-28T01:49:09;96391.47;;;-1.52;65.59
29239;BME280;16267;48.194;11.546;2023-02-28T01:51:46;96392.59;;;-1.53;65.53
29239;BME280;16267;48.194;11.546;2023-02-28T01:54:36;96395.53;;;-1.55;65.48
29239;BME280;16267;48.194;11.546;2023-02-28T01:57:13;96400.81;;;-1.55;65.92
29239;BME280;16267;48.194;11.546;2023-02-28T01:59:52;96393.22;;;-1.57;65.74
29239;BME280;16267;48.194;11.546;2023-02-28T02:02:21;96390.56;;;-1.57;65.86
29239;BME280;16267;48.194;11.546;2023-02-28T02:07:23;96393.22;;;-1.57;65.76
29239;BME280;16267;48.194;11.546;2023-02-28T02:09:59;96383.44;;;-1.56;65.81
29239;BME280;16267;48.194;11.546;2023-02-28T02:18:48;96389.66;;;-1.61;66.06
29239;BME280;16267;48.194;11.546;2023-02-28T02:24:42;96389.97;;;-1.62;66.16
29239;BME280;16267;48.194;11.546;2023-02-28T02:39:16;96382.69;;;-1.65;66.27
29239;BME280;16267;48.194;11.546;2023-02-28T02:44:15;96378.03;;;-1.68;66.37
29239;BME280;16267;48.194;11.546;2023-02-28T02:46:45;96370.91;;;-1.68;66.56
29239;BME280;16267;48.194;11.546;2023-02-28T02:49:26;96364.13;;;-1.69;66.52
29239;BME280;16267;48.194;11.546;2023-02-28T02:51:55;96367.53;;;-1.68;66.46
29239;BME280;16267;48.194;11.546;2023-02-28T02:54:30;96369.38;;;-1.69;66.34
29239;BME280;16267;48.194;11.546;2023-02-28T02:57:04;96372.31;;;-1.70;66.49
29239;BME280;16267;48.194;11.546;2023-02-28T02:59:32;96368.44;;;-1.73;66.58
29239;BME280;16267;48.194;11.546;2023-02-28T03:02:10;96368.78;;;-1.74;66.41
29239;BME280;16267;48.194;11.546;2023-02-28T03:04:50;96363.81;;;-1.76;66.64
29239;BME280;16267;48.194;11.546;2023-02-28T03:07:17;96369.06;;;-1.76;66.91
29239;BME280;16267;48.194;11.546;2023-02-28T03:09:51;96367.53;;;-1.77;66.59
29239;BME280;16267;48.194;11.546;2023-02-28T03:12:18;96371.22;;;-1.78;67.01
29239;BME280;16267;48.194;11.546;2023-02-28T03:18:32;96370.78;;;-1.80;66.99
29239;BME280;16267;48.194;11.546;2023-02-28T03:24:47;96370.94;;;-1.85;67.26
29239;BME280;16267;48.194;11.546;2023-02-28T03:27:25;96376.19;;;-1.85;67.41
29239;BME280;16267;48.194;11.546;2023-02-28T03:30:49;96376.19;;;-1.85;67.68
29239;BME280;16267;48.194;11.546;2023-02-28T03:33:43;96379.91;;;-1.86;67.68
29239;BME280;16267;48.194;11.546;2023-02-28T03:36:17;96382.22;;;-1.85;67.87
29239;BME280;16267;48.194;11.546;2023-02-28T03:38:53;96378.06;;;-1.86;68.01
29239;BME280;16267;48.194;11.546;2023-02-28T03:41:24;96373.09;;;-1.87;68.53
29239;BME280;16267;48.194;11.546;2023-02-28T03:44:03;96378.84;;;-1.85;68.72
29239;BME280;16267;48.194;11.546;2023-02-28T03:46:36;96383.00;;;-1.84;68.47
29239;BME280;16267;48.194;11.546;2023-02-28T03:49:15;96384.88;;;-1.85;69.01
29239;BME280;16267;48.194;11.546;2023-02-28T03:51:43;96380.38;;;-1.84;68.98
29239;BME280;16267;48.194;11.546;2023-02-28T03:54:32;96383.63;;;-1.87;69.22
29239;BME280;16267;48.194;11.546;2023-02-28T03:57:36;96379.13;;;-1.87;69.04
29239;BME280;16267;48.194;11.546;2023-02-28T04:00:27;96383.91;;;-1.89;69.04
29239;BME280;16267;48.194;11.546;2023-02-28T04:02:54;96390.75;;;-1.88;69.54
29239;BME280;16267;48.194;11.546;2023-02-28T04:05:21;96381.28;;;-1.89;69.37
29239;BME280;16267;48.194;11.546;2023-02-28T04:07:48;96390.56;;;-1.91;69.78
29239;BME280;16267;48.194;11.546;2023-02-28T04:10:15;96387.63;;;-1.90;69.95
29239;BME280;16267;48.194;11.546;2023-02-28T04:12:41;96389.50;;;-1.90;69.66
29239;BME280;16267;48.194;11.546;2023-02-28T04:15:08;96395.53;;;-1.90;70.29
29239;BME280;16267;48.194;11.546;2023-02-28T04:17:36;96403.13;;;-1.88;70.17
29239;BME280;16267;48.194;11.546;2023-02-28T04:20:02;96410.56;;;-1.90;70.43
29239;BME280;16267;48.194;11.546;2023-02-28T04:22:29;96407.16;;;-1.91;70.71
29239;BME280;16267;48.194;11.546;2023-02-28T04:24:55;96405.28;;;-1.90;70.48
29239;BME280;16267;48.194;11.546;2023-02-28T04:27:21;96410.56;;;-1.90;70.39
29239;BME280;16267;48.194;11.546;2023-02-28T04:29:47;96413.94;;;-1.90;71.38
29239;BME280;16267;48.194;11.546;2023-02-28T04:32:13;96417.53;;;-1.86;71.00
29239;BME280;16267;48.194;11.546;2023-02-28T04:34:39;96418.13;;;-1.89;70.54
29239;BME280;16267;48.194;11.546;2023-02-28T04:37:05;96424.19;;;-1.88;71.77
29239;BME280;16267;48.194;11.546;2023-02-28T04:39:36;96421.22;;;-1.87;71.65
29239;BME280;16267;48.194;11.546;2023-02-28T04:42:02;96424.00;;;-1.83;71.57
29239;BME280;16267;48.194;11.546;2023-02-28T04:44:28;96417.69;;;-1.82;71.49
29239;BME280;16267;48.194;11.546;2023-02-28T04:46:54;96416.28;;;-1.80;71.82
29239;BME280;16267;48.194;11.546;2023-02-28T04:49:19;96411.47;;;-1.77;71.92
29239;BME280;16267;48.194;11.546;2023-02-28T04:51:45;96408.53;;;-1.76;72.23
29239;BME280;16267;48.194;11.546;2023-02-28T04:54:11;96413.81;;;-1.76;72.03
29239;BME280;16267;48.194;11.546;2023-02-28T04:56:38;96416.13;;;-1.74;72.13
29239;BME280;16267;48.194;11.546;2023-02-28T04:59:04;96409.00;;;-1.74;72.13
29239;BME280;16267;48.194;11.546;2023-02-28T05:01:33;96423.41;;;-1.71;72.38
29239;BME280;16267;48.194;11.546;2023-02-28T05:04:01;96419.69;;;-1.70;72.42
29239;BME280;16267;48.194;11.546;2023-02-28T05:06:30;96426.03;;;-1.71;72.65
29239;BME280;16267;48.194;11.546;2023-02-28T05:08:56;96424.66;;;-1.69;72.74
29239;BME280;16267;48.194;11.546;2023-02-28T05:11:30;96430.22;;;-1.70;72.44
29239;BME280;16267;48.194;11.546;2023-02-28T05:14:02;96435.19;;;-1.69;72.50
29239;BME280;16267;48.194;11.546;2023-02-28T05:16:28;96436.41;;;-1.66;72.60
29239;BME280;16267;48.194;11.546;2023-02-28T05:18:54;96434.56;;;-1.66;72.64
29239;BME280;16267;48.194;11.546;2023-02-28T05:21:51;96439.66;;;-1.69;72.31
29239;BME280;16267;48.194;11.546;2023-02-28T05:24:18;96429.28;;;-1.66;72.48
29239;BME280;16267;48.194;11.546;2023-02-28T05:26:50;96440.59;;;-1.65;72.81
29239;BME280;16267;48.194;11.546;2023-02-28T05:29:17;96431.31;;;-1.63;72.45
29239;BME280;16267;48.194;11.546;2023-02-28T05:31:43;96434.22;;;-1.64;72.71
29239;BME280;16267;48.194;11.546;2023-02-28T05:34:08;96442.59;;;-1.62;72.63
29239;BME280;16267;48.194;11.546;2023-02-28T05:36:37;96437.03;;;-1.61;72.88
29239;BME280;16267;48.194;11.546;2023-02-28T05:39:05;96430.69;;;-1.60;72.85
29239;BME280;16267;48.194;11.546;2023-02-28T05:41:31;96432.22;;;-1.59;72.83
29239;BME280;16267;48.194;11.546;2023-02-28T05:43:57;96428.81;;;-1.59;72.41
29239;BME280;16267;48.194;11.546;2023-02-28T05:46:25;96435.47;;;-1.62;72.30
29239;BME280;16267;48.194;11.546;2023-02-28T05:48:50;96432.53;;;-1.60;72.95
29239;BME280;16267;48.194;11.546;2023-02-28T05:51:17;96440.13;;;-1.59;72.57
29239;BME280;16267;48.194;11.546;2023-02-28T05:53:43;96433.78;;;-1.58;72.55
29239;BME280;16267;48.194;11.546;2023-02-28T05:56:09;96437.97;;;-1.57;72.49
29239;BME280;16267;48.194;11.546;2023-02-28T05:58:35;96433.78;;;-1.58;72.38
29239;BME280;16267;48.194;11.546;2023-02-28T06:03:48;96445.56;;;-1.55;72.55
29239;BME280;16267;48.194;11.546;2023-02-28T06:06:14;96440.88;;;-1.58;72.18
29239;BME280;16267;48.194;11.546;2023-02-28T06:08:39;96449.41;;;-1.52;72.80
29239;BME280;16267;48.194;11.546;2023-02-28T06:11:05;96446.78;;;-1.52;72.66
29239;BME280;16267;48.194;11.546;2023-02-28T06:13:32;96457.00;;;-1.51;72.12
29239;BME280;16267;48.194;11.546;2023-02-28T06:16:01;96455.13;;;-1.50;72.40
29239;BME280;16267;48.194;11.546;2023-02-28T06:18:26;96454.06;;;-1.49;72.57
29239;BME280;16267;48.194;11.546;2023-02-28T06:20:54;96455.00;;;-1.54;71.21
29239;BME280;16267;48.194;11.546;2023-02-28T06:23:20;96466.00;;;-1.52;72.74
29239;BME280;16267;48.194;11.546;2023-02-28T06:25:47;96469.25;;;-1.55;71.51
29239;BME280;16267;48.194;11.546;2023-02-28T06:28:13;96472.50;;;-1.49;72.19
29239;BME280;16267;48.194;11.546;2023-02-28T06:30:39;96474.03;;;-1.48;72.35
29239;BME280;16267;48.194;11.546;2023-02-28T06:33:04;96465.38;;;-1.49;72.05
29239;BME280;16267;48.194;11.546;2023-02-28T06:35:31;96462.41;;;-1.47;72.35
29239;BME280;16267;48.194;11.546;2023-02-28T06:37:57;96470.94;;;-1.50;72.10
29239;BME280;16267;48.194;11.546;2023-02-28T06:40:23;96471.13;;;-1.47;71.93
29239;BME280;16267;48.194;11.546;2023-02-28T06:42:49;96476.81;;;-1.45;71.80
29239;BME280;16267;48.194;11.546;2023-02-28T06:45:15;96475.28;;;-1.54;72.18
29239;BME280;16267;48.194;11.546;2023-02-28T06:47:41;96479.59;;;-1.59;72.44
29239;BME280;16267;48.194;11.546;2023-02-28T06:50:10;96477.59;;;-1.53;72.33
29239;BME280;16267;48.194;11.546;2023-02-28T06:52:37;96480.06;;;-1.57;71.37
29239;BME280;16267;48.194;11.546;2023-02-28T06:55:05;96485.19;;;-1.51;72.48
29239;BME280;16267;48.194;11.546;2023-02-28T06:57:33;96495.09;;;-1.48;72.38
29239;BME280;16267;48.194;11.546;2023-02-28T07:00:00;96494.47;;;-1.45;72.56
29239;BME280;16267;48.194;11.546;2023-02-28T07:02:27;96494.94;;;-1.43;72.25
29239;BME280;16267;48.194;11.546;2023-02-28T07:04:53;96506.25;;;-1.43;71.71
29239;BME280;16267;48.194;11.546;2023-02-28T07:07:18;96506.56;;;-1.44;71.79
29239;BME280;16267;48.194;11.546;2023-02-28T07:09:44;96503.78;;;-1.39;72.43
29239;BME280;16267;48.194;11.546;2023-02-28T07:12:10;96504.53;;;-1.39;72.23
29239;BME280;16267;48.194;11.546;2023-02-28T07:14:37;96509.22;;;-1.36;71.79
29239;BME280;16267;48.194;11.546;2023-02-28T07:17:03;96506.25;;;-1.34;71.69
29239;BME280;16267;48.194;11.546;2023-02-28T07:19:29;96499.59;;;-1.31;71.72
29239;BME280;16267;48.194;11.546;2023-02-28T07:21:54;96506.72;;;-1.32;71.38
29239;BME280;16267;48.194;11.546;2023-02-28T07:24:20;96501.13;;;-1.39;71.11
29239;BME280;16267;48.194;11.546;2023-02-28T07:26:46;96492.03;;;-1.33;71.97
29239;BME280;16267;48.194;11.546;2023-02-28T07:29:12;96503.28;;;-1.50;71.54
29239;BME280;16267;48.194;11.546;2023-02-28T07:31:38;96504.25;;;-1.37;72.64
29239;BME280;16267;48.194;11.546;2023-02-28T07:34:03;96500.69;;;-1.32;72.43
29239;BME280;16267;48.194;11.546;2023-02-28T07:36:29;96512.16;;;-1.37;71.70
29239;BME280;16267;48.194;11.546;2023-02-28T07:38:55;96508.75;;;-1.38;72.54
29239;BME280;16267;48.194;11.546;2023-02-28T07:41:22;96515.41;;;-1.40;72.23
29239;BME280;16267;48.194;11.546;2023-02-28T07:43:52;96510.47;;;-1.33;72.62
29239;BME280;16267;48.194;11.546;2023-02-28T07:46:18;96506.56;;;-1.44;72.03
29239;BME280;16267;48.194;11.546;2023-02-28T07:48:46;96510.44;;;-1.50;72.74
29239;BME280;16267;48.194;11.546;2023-02-28T07:51:12;96509.38;;;-1.41;73.35
29239;BME280;16267;48.194;11.546;2023-02-28T07:53:38;96509.66;;;-1.33;72.84
29239;BME280;16267;48.194;11.546;2023-02-28T07:56:05;96511.84;;;-1.27;72.32
29239;BME280;16267;48.194;11.546;2023-02-28T07:58:31;96502.84;;;-1.26;72.27
29239;BME280;16267;48.194;11.546;2023-02-28T08:00:57;96500.06;;;-1.21;72.30
29239;BME280;16267;48.194;11.546;2023-02-28T08:03:24;96497.91;;;-1.19;71.74
29239;BME280;16267;48.194;11.546;2023-02-28T08:05:50;96505.34;;;-1.21;71.16
29239;BME280;16267;48.194;11.546;2023-02-28T08:08:18;96505.31;;;-1.12;71.68
29239;BME280;16267;48.194;11.546;2023-02-28T08:10:43;96507.34;;;-1.09;71.35
29239;BME280;16267;48.194;11.546;2023-02-28T08:13:09;96512.75;;;-1.05;71.55
29239;BME280;16267;48.194;11.546;2023-02-28T08:15:35;96516.81;;;-1.08;71.36
29239;BME280;16267;48.194;11.546;2023-02-28T08:18:02;96522.97;;;-1.04;71.15
29239;BME280;16267;48.194;11.546;2023-02-28T08:20:27;96522.22;;;-1.04;70.40
29239;BME280;16267;48.194;11.546;2023-02-28T08:22:53;96527.00;;;-1.06;71.06
29239;BME280;16267;48.194;11.546;2023-02-28T08:25:20;96522.84;;;-1.07;71.17
29239;BME280;16267;48.194;11.546;2023-02-28T08:27:45;96532.44;;;-1.03;71.24
29239;BME280;16267;48.194;11.546;2023-02-28T08:30:13;96529.97;;;-0.99;70.42
29239;BME280;16267;48.194;11.546;2023-02-28T08:32:40;96524.22;;;-1.01;70.90
29239;BME280;16267;48.194;11.546;2023-02-28T08:35:07;96526.22;;;-0.98;70.71
29239;BME280;16267;48.194;11.546;2023-02-28T08:37:35;96536.31;;;-1.00;70.49
29239;BME280;16267;48.194;11.546;2023-02-28T08:40:00;96531.66;;;-0.95;70.18
29239;BME280;16267;48.194;11.546;2023-02-28T08:42:26;96536.28;;;-0.92;70.19
29239;BME280;16267;48.194;11.546;2023-02-28T08:44:52;96537.09;;;-0.91;70.07
29239;BME280;16267;48.194;11.546;2023-02-28T08:47:18;96543.44;;;-0.92;70.51
29239;BME280;16267;48.194;11.546;2023-02-28T08:49:44;96547.63;;;-0.91;70.21
29239;BME280;16267;48.194;11.546;2023-02-28T08:52:10;96549.31;;;-0.86;69.73
29239;BME280;16267;48.194;11.546;2023-02-28T08:54:36;96547.91;;;-0.84;69.81
29239;BME280;16267;48.194;11.546;2023-02-28T08:57:03;96542.81;;;-0.80;69.89
29239;BME280;16267;48.194;11.546;2023-02-28T08:59:29;96552.13;;;-0.83;69.71
29239;BME280;16267;48.194;11.546;2023-02-28T09:01:55;96552.88;;;-0.82;69.64
29239;BME280;16267;48.194;11.546;2023-02-28T09:04:21;96547.91;;;-0.84;69.44
29239;BME280;16267;48.194;11.546;2023-02-28T09:06:47;96549.00;;;-0.76;69.74
29239;BME280;16267;48.194;11.546;2023-02-28T09:09:15;96546.84;;;-0.74;69.04
29239;BME280;16267;48.194;11.546;2023-02-28T09:11:41;96549.91;;;-0.72;69.62
29239;BME280;16267;48.194;11.546;2023-02-28T09:14:07;96553.78;;;-0.70;69.17
29239;BME280;16267;48.194;11.546;2023-02-28T09:16:34;96553.19;;;-0.66;69.26
29239;BME280;16267;48.194;11.546;2023-02-28T09:19:00;96552.22;;;-0.62;69.18
29239;BME280;16267;48.194;11.546;2023-02-28T09:21:26;96555.47;;;-0.56;69.24
29239;BME280;16267;48.194;11.546;2023-02-28T09:23:52;96557.34;;;-0.57;69.22
29239;BME280;16267;48.194;11.546;2023-02-28T09:26:24;96561.22;;;-0.54;68.90
29239;BME280;16267;48.194;11.546;2023-02-28T09:28:52;96566.66;;;-0.59;68.10
29239;BME280;16267;48.194;11.546;2023-02-28T09:31:24;96568.50;;;-0.60;68.80
29239;BME280;16267;48.194;11.546;2023-02-28T09:33:53;96572.66;;;-0.50;69.21
29239;BME280;16267;48.194;11.546;2023-02-28T09:36:20;96576.72;;;-0.53;68.77
29239;BME280;16267;48.194;11.546;2023-02-28T09:38:46;96583.53;;;-0.43;69.03
29239;BME280;16267;48.194;11.546;2023-02-28T09:41:44;96594.69;;;-0.37;68.57
29239;BME280;16267;48.194;11.546;2023-02-28T09:50:37;96593.44;;;-0.31;68.11
29239;BME280;16267;48.194;11.546;2023-02-28T09:52:55;96587.97;;;-0.26;67.41
29239;BME280;16267;48.194;11.546;2023-02-28T09:55:37;96594.19;;;-0.31;66.70
29239;BME280;16267;48.194;11.546;2023-02-28T09:58:05;96590.63;;;-0.26;67.13
29239;BME280;16267;48.194;11.546;2023-02-28T10:00:39;96598.69;;;-0.14;67.99
29239;BME280;16267;48.194;11.546;2023-02-28T10:03:31;96591.97;;;-0.11;67.47
29239;BME280;16267;48.194;11.546;2023-02-28T10:06:20;96588.34;;;0.02;67.39
29239;BME280;16267;48.194;11.546;2023-02-28T10:09:08;96590.22;;;0.02;65.83
29239;BME280;16267;48.194;11.546;2023-02-28T10:11:40;96598.44;;;0.09;66.66
29239;BME280;16267;48.194;11.546;2023-02-28T10:14:23;96594.66;;;0.18;66.60
29239;BME280;16267;48.194;11.546;2023-02-28T10:17:27;96585.63;;;0.28;65.96
29239;BME280;16267;48.194;11.546;2023-02-28T10:25:38;96602.00;;;0.42;64.36
29239;BME280;16267;48.194;11.546;2023-02-28T10:28:24;96596.50;;;0.56;65.29
29239;BME280;16267;48.194;11.546;2023-02-28T10:30:53;96606.09;;;0.61;64.37
29239;BME280;16267;48.194;11.546;2023-02-28T10:33:30;96607.31;;;0.63;63.85
29239;BME280;16267;48.194;11.546;2023-02-28T10:35:57;96596.72;;;0.72;64.42
29239;BME280;16267;48.194;11.546;2023-02-28T10:38:32;96603.03;;;0.80;64.32
29239;BME280;16267;48.194;11.546;2023-02-28T10:41:11;96602.06;;;0.84;63.73
29239;BME280;16267;48.194;11.546;2023-02-28T10:43:39;96605.94;;;0.87;63.98
29239;BME280;16267;48.194;11.546;2023-02-28T10:46:11;96615.59;;;0.83;63.22
29239;BME280;16267;48.194;11.546;2023-02-28T10:48:59;96622.00;;;0.82;63.60
29239;BME280;16267;48.194;11.546;2023-02-28T10:51:38;96615.75;;;0.86;63.67
29239;BME280;16267;48.194;11.546;2023-02-28T10:54:04;96616.19;;;0.88;63.98
29239;BME280;16267;48.194;11.546;2023-02-28T10:56:31;96613.09;;;0.86;63.50
29239;BME280;16267;48.194;11.546;2023-02-28T11:01:41;96607.56;;;1.00;63.81
29239;BME280;16267;48.194;11.546;2023-02-28T11:07:01;96622.25;;;1.10;64.22
29239;BME280;16267;48.194;11.546;2023-02-28T11:09:36;96618.47;;;1.20;64.09
29239;BME280;16267;48.194;11.546;2023-02-28T11:12:07;96613.56;;;1.09;62.84
29239;BME280;16267;48.194;11.546;2023-02-28T11:14:59;96611.53;;;1.27;63.72
29239;BME280;16267;48.194;11.546;2023-02-28T11:17:31;96612.28;;;1.49;63.50
29239;BME280;16267;48.194;11.546;2023-02-28T11:20:06;96619.94;;;1.63;61.73
29239;BME280;16267;48.194;11.546;2023-02-28T11:22:37;96614.16;;;1.82;60.08
29239;BME280;16267;48.194;11.546;2023-02-28T11:25:21;96610.03;;;2.05;59.80
29239;BME280;16267;48.194;11.546;2023-02-28T11:27:51;96603.59;;;1.94;58.13
29239;BME280;16267;48.194;11.546;2023-02-28T11:32:54;96607.84;;;2.32;57.93
29239;BME280;16267;48.194;11.546;2023-02-28T11:35:34;96600.25;;;2.30;57.69
29239;BME280;16267;48.194;11.546;2023-02-28T11:38:02;96600.00;;;2.35;58.02
29239;BME280;16267;48.194;11.546;2023-02-28T11:47:38;96587.59;;;2.76;57.27
29239;BME280;16267;48.194;11.546;2023-02-28T11:56:14;96578.03;;;2.72;57.27
29239;BME280;16267;48.194;11.546;2023-02-28T11:59:11;96577.56;;;2.70;57.46
29239;BME280;16267;48.194;11.546;2023-02-28T12:05:17;96570.28;;;2.66;57.36
29239;BME280;16267;48.194;11.546;2023-02-28T12:10:57;96578.56;;;2.65;58.06
29239;BME280;16267;48.194;11.546;2023-02-28T12:22:29;96562.13;;;2.72;58.47
29239;BME280;16267;48.194;11.546;2023-02-28T12:25:36;96565.66;;;2.63;59.09
29239;BME280;16267;48.194;11.546;2023-02-28T12:28:13;96557.72;;;2.63;58.79
29239;BME280;16267;48.194;11.546;2023-02-28T12:31:06;96563.00;;;2.63;58.01
29239;BME280;16267;48.194;11.546;2023-02-28T12:33:40;96555.59;;;2.69;59.17
29239;BME280;16267;48.194;11.546;2023-02-28T12:36:13;96561.44;;;2.75;58.75
29239;BME280;16267;48.194;11.546;2023-02-28T12:39:04;96551.94;;;2.74;58.41
29239;BME280;16267;48.194;11.546;2023-02-28T12:42:00;96543.84;;;2.82;59.18
29239;BME280;16267;48.194;11.546;2023-02-28T12:44:46;96550.47;;;2.88;58.56
29239;BME280;16267;48.194;11.546;2023-02-28T12:47:17;96543.75;;;2.91;57.61
29239;BME280;16267;48.194;11.546;2023-02-28T12:49:56;96536.97;;;2.94;58.61
29239;BME280;16267;48.194;11.546;2023-02-28T12:52:57;96536.63;;;2.95;58.20
29239;BME280;16267;48.194;11.546;2023-02-28T12:55:35;96536.72;;;2.99;57.57
29239;BME280;16267;48.194;11.546;2023-02-28T13:09:59;96524.59;;;2.98;56.82
29239;BME280;16267;48.194;11.546;2023-02-28T13:12:25;96526.88;;;2.99;57.02
29239;BME280;16267;48.194;11.546;2023-02-28T13:15:21;96536.78;;;2.86;57.24
29239;BME280;16267;48.194;11.546;2023-02-28T13:17:52;96525.81;;;2.88;56.18
29239;BME280;16267;48.194;11.546;2023-02-28T13:22:53;96530.56;;;2.95;57.76
29239;BME280;16267;48.194;11.546;2023-02-28T13:27:53;96530.19;;;3.08;57.26
29239;BME280;16267;48.194;11.546;2023-02-28T13:33:36;96538.72;;;3.02;56.79
29239;BME280;16267;48.194;11.546;2023-02-28T13:39:02;96534.38;;;3.09;57.03
29239;BME280;16267;48.194;11.546;2023-02-28T13:44:05;96539.16;;;3.04;57.00
29239;BME280;16267;48.194;11.546;2023-02-28T14:01:24;96533.75;;;3.00;57.29
29239;BME280;16267;48.194;11.546;2023-02-28T14:04:54;96525.56;;;3.05;57.49
29239;BME280;16267;48.194;11.546;2023-02-28T14:07:01;96532.19;;;2.99;56.91
29239;BME280;16267;48.194;11.546;2023-02-28T14:09:34;96543.84;;;2.95;56.58
29239;BME280;16267;48.194;11.546;2023-02-28T14:12:54;96531.78;;;2.97;57.05
29239;BME280;16267;48.194;11.546;2023-02-28T14:15:47;96535.78;;;2.91;57.13
29239;BME280;16267;48.194;11.546;2023-02-28T14:18:32;96536.31;;;2.97;57.23
29239;BME280;16267;48.194;11.546;2023-02-28T14:27:40;96528.53;;;3.04;57.37
29239;BME280;16267;48.194;11.546;2023-02-28T14:38:45;96530.75;;;3.02;57.31
29239;BME280;16267;48.194;11.546;2023-02-28T14:44:01;96533.28;;;3.10;57.24
29239;BME280;16267;48.194;11.546;2023-02-28T14:46:37;96526.34;;;3.06;56.63
29239;BME280;16267;48.194;11.546;2023-02-28T14:49:05;96536.72;;;2.99;56.84
29239;BME280;16267;48.194;11.546;2023-02-28T14:51:33;96526.66;;;3.04;56.97
29239;BME280;16267;48.194;11.546;2023-02-28T14:54:01;96529.75;;;3.06;56.81
29239;BME280;16267;48.194;11.546;2023-02-28T14:56:38;96520.34;;;3.09;56.60
29239;BME280;16267;48.194;11.546;2023-02-28T14:59:25;96522.78;;;3.02;57.04
29239;BME280;16267;48.194;11.546;2023-02-28T15:01:52;96522.72;;;2.98;56.84
29239;BME280;16267;48.194;11.546;2023-02-28T15:04:26;96519.81;;;3.03;57.19
29239;BME280;16267;48.194;11.546;2023-02-28T15:07:14;96521.47;;;3.08;57.34
29239;BME280;16267;48.194;11.546;2023-02-28T15:09:41;96524.97;;;3.12;57.29
29239;BME280;16267;48.194;11.546;2023-02-28T15:12:07;96522.41;;;3.16;57.34
29239;BME280;16267;48.194;11.546;2023-02-28T15:14:34;96522.09;;;3.17;57.06
29239;BME280;16267;48.194;11.546;2023-02-28T15:17:08;96521.66;;;3.15;57.35
29239;BME280;16267;48.194;11.546;2023-02-28T15:19:41;96516.50;;;3.06;57.49
29239;BME280;16267;48.194;11.546;2023-02-28T15:22:18;96527.19;;;3.10;56.75
29239;BME280;16267;48.194;11.546;2023-02-28T15:24:50;96521.22;;;3.13;57.33
29239;BME280;16267;48.194;11.546;2023-02-28T15:27:27;96519.34;;;3.13;57.41
29239;BME280;16267;48.194;11.546;2023-02-28T15:30:00;96525.19;;;3.19;57.90
29239;BME280;16267;48.194;11.546;2023-02-28T15:32:36;96526.63;;;3.17;57.71
29239;BME280;16267;48.194;11.546;2023-02-28T15:35:30;96525.59;;;3.21;57.80
29239;BME280;16267;48.194;11.546;2023-02-28T15:38:23;96522.63;;;3.23;58.03
29239;BME280;16267;48.194;11.546;2023-02-28T15:40:52;96516.97;;;3.24;57.88